Terminal Aerodrome Forecast
Issued by NWS Charleston, WV

Current Version | Previous Version | Graphics & Text | Print | Product List | Glossary On
Versions: 1 2 3 4 5 6 7 8 9 10 11 12 13 14 15 16 17 18 19 20 21 22 23 24 25 26 27
000
FTUS41 KRLX 271139
TAFPKB
TAF
KPKB 271139Z 2712/2812 21003KT 6SM BR SCT010 OVC050
     FM271400 24004KT P6SM BKN025
     FM271800 24005KT P6SM BKN040
     FM280100 15003KT P6SM SHRA VCTS BKN060CB
     FM280500 18003KT 4SM SHRA BKN035=

USA.gov is the U.S. government's official web portal to all federal, state and local government web resources and services.